Hovedside
METAR-TAF:

METAR-TAF

Lufthavner :

Udaipur, India

breddegrad: 24-37-04N, lengdegrad: 73-53-46E, høyde over havet: 513 m

Gjeldene værobservasjon

Denne rapporten ble laget for 54 minutter siden, klokken 02:30 UTC
Vind 8 kt fra Sør-sørvest
Temperatur 29°C
Luftfuktighet 74%
Trykk 1002 hPa
Sikt: 2500 m
Spredte skyer i en høyde av 2500 ft
Spredte skyer i en høyde av 3000 ft
Brutte skyer i en høyde av 8000 ft
dis,

METAR: VAUD 200230Z 21008KT 2500 HZ SCT025 SCT030 BKN080 29/24 Q1002 NOSIG

Tid: 08:54 (03:24 UTC)

Varsel

Denne rapporten ble laget for 1 time og 24 minutter siden, klokken 02:00 UTC
Varsel gyldig fra 20. klokken 03 UTC til 20. klokken 12 UTC
Vind 10 kt fra Sørvest
Sikt: 4000 m
Spredte skyer i en høyde av 3000 ft
Spredte skyer i en høyde av 10000 ft
dis
Blir
fra 20. klokken 05 UTC til 20. klokken 07 UTC
Sikt: 6000 m
Få skyer i en høyde av 3000 ft

TAF: VAUD 200200Z 2003/2012 23010KT 4000 HZ SCT030 SCT100 BECMG 2005/2007 6000 FEW030

Værobservasjoner og værvarsel for over 4000 flyplasser (METAR- og TAF-rapporter).

Tilgjengelige stasjoner er representert av de røde og gule prikkene på kartet.

Hold musepekeren over prikken for å se navnet på stasjonen.

Klikk så for å se værobservasjoner og -varsler.

For å forandre kartet kan du klikke på den grønne knappen med svart kryss for å zoome inn, på den grønne knappen med strek for å zoome ut, eller på de grønne pilene for å se tilstøtende kart.


METAR-TAF: